Time;durP1;ratioP1;P1;durP2;ratioP2;P2;SDS_P1;SDS_P2;PMS_P1;PMS_P2;Temp;Humidity;BMP_temperature;BMP_pressure;BME280_temperature;BME280_humidity;BME280_pressure;Samples;Min_cycle;Max_cycle;Signal;HPM_P1;HPM_P2
2022/10/02 00:01:55;;;;;;;;;;;;;;;11.53;82.95;98141.19;4958261;28;20297;-79
2022/10/02 00:04:23;;;;;;;;;;;;;;;11.54;82.91;98146.31;4950514;28;20024;-79
2022/10/02 00:06:56;;;;;;;;;;;;;;;11.52;83.12;98137.66;4972282;28;19981;-80
2022/10/02 00:09:27;;;;;;;;;;;;;;;11.58;82.99;98143.78;4971151;28;20033;-79
2022/10/02 00:11:58;;;;;;;;;;;;;;;11.56;83.03;98154.19;4956858;28;19926;-79
2022/10/02 00:14:29;;;;;;;;;;;;;;;11.58;83.12;98172.91;4958281;28;20556;-79
2022/10/02 00:16:58;;;;;;;;;;;;;;;11.58;83.26;98162.00;4967994;28;19926;-79
2022/10/02 00:19:30;;;;;;;;;;;;;;;11.59;83.28;98163.63;4951686;28;20013;-79
2022/10/02 00:22:36;;;;;;;;;;;;;;;11.60;83.25;98163.28;4956834;28;19926;-79
2022/10/02 00:25:07;;;;;;;;;;;;;;;11.63;83.25;98161.88;4884759;29;19931;-79
2022/10/02 00:27:48;;;;;;;;;;;;;;;11.64;83.23;98171.66;4895054;29;19926;-79
2022/10/02 00:30:17;;;;;;;;;;;;;;;11.63;83.19;98175.50;4931974;29;19927;-79
2022/10/02 00:32:50;;;;;;;;;;;;;;;11.64;83.52;98174.38;4902495;29;20110;-79
2022/10/02 00:35:24;;;;;;;;;;;;;;;11.65;83.17;98174.06;4917160;29;19950;-79
2022/10/02 00:38:24;;;;;;;;;;;;;;;11.64;83.35;98186.06;4946799;29;20088;-80
2022/10/02 00:41:06;;;;;;;;;;;;;;;11.65;83.49;98179.50;4902293;29;20337;-79
2022/10/02 00:43:37;;;;;;;;;;;;;;;11.69;83.41;98179.69;4947860;28;20373;-79
2022/10/02 00:46:14;;;;;;;;;;;;;;;11.69;83.47;98176.97;4943972;28;19927;-78
2022/10/02 00:49:00;;;;;;;;;;;;;;;11.64;84.02;98172.44;4931532;29;20376;-79
2022/10/02 00:51:33;;;;;;;;;;;;;;;11.67;83.84;98177.28;4931384;29;19926;-79
2022/10/02 00:54:04;;;;;;;;;;;;;;;11.69;83.85;98182.41;4912689;29;19930;-79
2022/10/02 00:56:33;;;;;;;;;;;;;;;11.71;83.97;98191.06;4954993;28;19925;-79
2022/10/02 00:59:07;;;;;;;;;;;;;;;11.71;83.74;98174.72;4993378;28;19932;-79
2022/10/02 01:02:01;;;;;;;;;;;;;;;11.73;83.99;98175.22;4969877;28;19926;-79
2022/10/02 01:04:31;;;;;;;;;;;;;;;11.73;83.83;98183.41;4989462;28;20395;-79
2022/10/02 01:06:59;;;;;;;;;;;;;;;11.75;83.81;98176.50;4988590;28;20004;-80
2022/10/02 01:09:27;;;;;;;;;;;;;;;11.73;84.06;98165.16;4968915;28;19930;-79
2022/10/02 01:11:55;;;;;;;;;;;;;;;11.78;83.94;98158.78;4987012;28;19930;-79
2022/10/02 01:14:31;;;;;;;;;;;;;;;11.75;84.15;98162.09;4991979;28;19933;-79
2022/10/02 01:17:01;;;;;;;;;;;;;;;11.75;84.40;98162.91;4970680;28;19934;-79
2022/10/02 01:19:29;;;;;;;;;;;;;;;11.76;84.50;98160.97;4982921;28;19932;-79
2022/10/02 01:21:58;;;;;;;;;;;;;;;11.78;84.32;98166.94;4989584;28;19926;-79
2022/10/02 01:24:32;;;;;;;;;;;;;;;11.76;84.26;98174.59;4998009;28;19961;-79
2022/10/02 01:27:02;;;;;;;;;;;;;;;11.74;84.35;98174.13;4974672;28;19926;-79
2022/10/02 01:29:33;;;;;;;;;;;;;;;11.72;84.65;98179.06;4989698;28;20412;-79
2022/10/02 01:32:04;;;;;;;;;;;;;;;11.67;84.61;98177.28;4974801;28;19930;-79
2022/10/02 01:34:32;;;;;;;;;;;;;;;11.68;84.88;98189.78;4971656;28;19926;-79
2022/10/02 01:37:01;;;;;;;;;;;;;;;11.69;84.78;98185.13;4970277;28;20331;-79
2022/10/02 01:39:30;;;;;;;;;;;;;;;11.67;85.16;98187.38;4959383;28;19930;-80
2022/10/02 01:42:02;;;;;;;;;;;;;;;11.70;85.21;98184.00;4972918;28;19976;-79
2022/10/02 01:44:30;;;;;;;;;;;;;;;11.72;85.23;98184.53;4995303;28;20033;-78
2022/10/02 01:47:02;;;;;;;;;;;;;;;11.72;85.17;98192.69;4976028;28;20024;-79
2022/10/02 01:49:51;;;;;;;;;;;;;;;11.76;85.00;98201.81;4991790;28;19925;-79
2022/10/02 01:52:22;;;;;;;;;;;;;;;11.75;84.94;98194.75;4964277;28;19926;-78
2022/10/02 01:54:56;;;;;;;;;;;;;;;11.76;85.38;98201.81;4972410;28;19961;-79
2022/10/02 01:57:31;;;;;;;;;;;;;;;11.77;85.54;98193.34;4975782;28;20269;-79
2022/10/02 02:00:04;;;;;;;;;;;;;;;11.77;85.42;98193.34;4983693;28;19926;-79
2022/10/02 02:02:42;;;;;;;;;;;;;;;11.79;85.47;98187.59;4985399;28;19930;-79
2022/10/02 02:05:11;;;;;;;;;;;;;;;11.72;85.87;98189.97;4968677;28;20285;-79
2022/10/02 02:07:42;;;;;;;;;;;;;;;11.74;85.79;98193.16;4971142;28;20015;-79
2022/10/02 02:10:13;;;;;;;;;;;;;;;11.72;85.84;98184.53;4978299;28;19953;-79
2022/10/02 02:13:07;;;;;;;;;;;;;;;11.79;85.67;98184.88;4989351;28;19933;-79
2022/10/02 02:15:38;;;;;;;;;;;;;;;11.79;85.63;98188.38;4998937;28;19930;-79
2022/10/02 02:18:31;;;;;;;;;;;;;;;11.80;85.56;98205.53;4989516;28;19936;-79
2022/10/02 02:21:01;;;;;;;;;;;;;;;11.80;85.40;98187.25;4982468;28;19954;-79
2022/10/02 02:23:31;;;;;;;;;;;;;;;11.82;85.49;98197.88;4972412;28;20391;-79
2022/10/02 02:26:00;;;;;;;;;;;;;;;11.85;85.46;98186.38;4976537;28;19932;-79
2022/10/02 02:28:30;;;;;;;;;;;;;;;11.87;85.34;98188.75;4953668;28;19949;-80
2022/10/02 02:30:58;;;;;;;;;;;;;;;11.86;85.44;98196.13;5000774;28;20016;-79
2022/10/02 02:33:28;;;;;;;;;;;;;;;11.87;85.53;98186.84;5002737;28;19937;-79
2022/10/02 02:36:21;;;;;;;;;;;;;;;11.86;85.20;98200.78;4986982;28;20119;-80
2022/10/02 02:38:57;;;;;;;;;;;;;;;11.85;85.31;98197.25;4962511;28;19963;-80
2022/10/02 02:41:26;;;;;;;;;;;;;;;11.85;85.42;98191.81;4987867;28;20051;-79
2022/10/02 02:43:59;;;;;;;;;;;;;;;11.88;85.49;98209.44;4971667;28;19926;-79
2022/10/02 02:46:28;;;;;;;;;;;;;;;11.88;85.50;98210.25;5000687;28;19930;-79
2022/10/02 02:48:57;;;;;;;;;;;;;;;11.90;85.48;98199.03;4994764;28;19930;-80
2022/10/02 02:51:27;;;;;;;;;;;;;;;11.89;85.51;98209.13;4973091;28;19936;-79
2022/10/02 02:53:57;;;;;;;;;;;;;;;11.89;85.87;98200.97;4958674;28;20035;-79
2022/10/02 02:56:25;;;;;;;;;;;;;;;11.88;85.94;98209.44;4990038;28;20175;-79
2022/10/02 02:58:53;;;;;;;;;;;;;;;11.90;85.76;98218.91;4990685;28;19926;-79
2022/10/02 03:01:23;;;;;;;;;;;;;;;11.93;85.59;98207.41;5004386;28;19930;-79
2022/10/02 03:03:51;;;;;;;;;;;;;;;11.89;85.70;98206.41;5006380;28;19926;-79
2022/10/02 03:06:25;;;;;;;;;;;;;;;11.82;86.03;98207.94;5006580;28;19938;-79
2022/10/02 03:08:54;;;;;;;;;;;;;;;11.87;85.98;98200.47;4997974;28;19940;-79
2022/10/02 03:11:25;;;;;;;;;;;;;;;11.88;86.03;98220.31;5003442;28;19960;-79
2022/10/02 03:13:55;;;;;;;;;;;;;;;11.80;86.22;98221.84;4984700;28;20024;-79
2022/10/02 03:16:29;;;;;;;;;;;;;;;11.85;86.00;98202.69;4973698;28;19930;-79
2022/10/02 03:19:00;;;;;;;;;;;;;;;11.78;86.41;98211.28;4975437;28;20020;-79
2022/10/02 03:21:28;;;;;;;;;;;;;;;11.83;86.34;98215.84;4976649;28;19941;-79
2022/10/02 03:24:01;;;;;;;;;;;;;;;11.80;86.48;98209.03;4987832;28;19977;-79
2022/10/02 03:26:34;;;;;;;;;;;;;;;11.84;86.25;98216.63;5005726;28;19926;-79
2022/10/02 03:29:31;;;;;;;;;;;;;;;11.85;86.23;98210.88;4981301;28;19930;-79
2022/10/02 03:32:02;;;;;;;;;;;;;;;11.81;86.40;98207.13;4984521;28;19969;-79
2022/10/02 03:34:31;;;;;;;;;;;;;;;11.79;86.34;98212.09;4991218;28;20021;-79
2022/10/02 03:37:02;;;;;;;;;;;;;;;11.84;86.40;98220.16;4994086;28;19932;-80
2022/10/02 03:39:30;;;;;;;;;;;;;;;11.81;86.49;98209.84;4978233;28;19933;-80
2022/10/02 03:41:58;;;;;;;;;;;;;;;11.83;86.34;98185.88;4957187;28;20037;-79
2022/10/02 03:44:27;;;;;;;;;;;;;;;11.83;86.28;98196.78;4977345;28;19930;-79
2022/10/02 03:46:56;;;;;;;;;;;;;;;11.81;86.53;98193.50;4994206;28;19997;-79
2022/10/02 03:49:25;;;;;;;;;;;;;;;11.84;86.34;98200.28;4975255;28;19985;-79
2022/10/02 03:51:53;;;;;;;;;;;;;;;11.80;86.34;98216.41;4993842;28;19933;-79
2022/10/02 03:54:22;;;;;;;;;;;;;;;11.85;86.18;98232.66;4961230;28;19926;-79
2022/10/02 03:56:53;;;;;;;;;;;;;;;11.95;85.88;98232.38;4978482;28;20355;-78
2022/10/02 04:02:23;;;;;;;;;;;;;;;11.98;85.25;98211.88;4958442;28;20021;-79
2022/10/02 04:04:54;;;;;;;;;;;;;;;11.96;85.66;98217.66;4969967;28;19969;-79
2022/10/02 04:07:29;;;;;;;;;;;;;;;11.97;85.43;98213.00;4971591;28;19926;-79
2022/10/02 04:10:00;;;;;;;;;;;;;;;11.96;85.34;98209.47;4985300;28;20336;-79
2022/10/02 04:12:34;;;;;;;;;;;;;;;11.96;85.45;98206.75;4979954;28;19926;-79
2022/10/02 04:15:07;;;;;;;;;;;;;;;12.00;85.31;98201.50;4977347;28;19926;-79
2022/10/02 04:17:44;;;;;;;;;;;;;;;11.99;85.54;98211.59;5012486;28;20380;-79
2022/10/02 04:20:23;;;;;;;;;;;;;;;11.99;85.29;98192.53;5013176;28;19926;-79
2022/10/02 04:22:56;;;;;;;;;;;;;;;11.97;85.21;98191.22;4996784;28;20277;-80
2022/10/02 04:25:25;;;;;;;;;;;;;;;11.95;85.46;98183.38;5013923;28;19932;-79
2022/10/02 04:27:55;;;;;;;;;;;;;;;11.97;85.32;98194.75;5014188;28;19926;-80
2022/10/02 04:30:24;;;;;;;;;;;;;;;11.98;85.24;98204.50;4991458;28;19949;-79
2022/10/02 04:32:52;;;;;;;;;;;;;;;12.02;85.01;98197.34;5007064;28;19936;-79
2022/10/02 04:35:22;;;;;;;;;;;;;;;12.02;84.79;98197.34;4989844;28;19925;-79
2022/10/02 04:38:26;;;;;;;;;;;;;;;11.98;85.13;98198.28;4971941;28;20015;-80
2022/10/02 04:40:57;;;;;;;;;;;;;;;11.99;85.00;98200.69;4987394;28;20017;-80
2022/10/02 04:43:30;;;;;;;;;;;;;;;11.97;85.03;98213.81;4981618;28;19925;-80
2022/10/02 04:46:04;;;;;;;;;;;;;;;12.00;84.73;98209.66;5001542;28;20293;-79
2022/10/02 04:48:36;;;;;;;;;;;;;;;12.00;84.77;98209.66;4988579;28;20307;-80
2022/10/02 04:51:07;;;;;;;;;;;;;;;12.04;84.66;98219.63;4984735;28;19989;-79
2022/10/02 04:53:44;;;;;;;;;;;;;;;12.02;84.68;98216.41;5000829;28;20025;-79
2022/10/02 04:56:31;;;;;;;;;;;;;;;12.06;84.51;98213.84;4980454;28;19925;-79
2022/10/02 04:59:03;;;;;;;;;;;;;;;12.02;84.29;98221.84;5003719;28;19997;-79
2022/10/02 05:01:54;;;;;;;;;;;;;;;12.06;84.55;98227.47;5002730;28;20335;-79
2022/10/02 05:04:36;;;;;;;;;;;;;;;12.09;84.57;98224.13;5001624;28;19932;-79
2022/10/02 05:07:08;;;;;;;;;;;;;;;12.10;83.84;98227.66;4963603;28;19932;-79
2022/10/02 05:09:40;;;;;;;;;;;;;;;12.12;84.14;98222.69;4990401;28;19925;-79
2022/10/02 05:12:39;;;;;;;;;;;;;;;12.02;84.50;98234.66;5005404;28;20280;-79
2022/10/02 05:15:13;;;;;;;;;;;;;;;12.07;84.39;98229.88;5000334;28;19925;-79
2022/10/02 05:17:51;;;;;;;;;;;;;;;12.14;84.17;98232.16;4970351;28;19933;-80
2022/10/02 05:20:24;;;;;;;;;;;;;;;12.14;84.09;98221.25;4980408;28;19941;-79
2022/10/02 05:22:55;;;;;;;;;;;;;;;12.16;84.11;98231.84;4995442;28;19925;-79
2022/10/02 05:25:35;;;;;;;;;;;;;;;12.13;84.07;98235.19;4983768;28;19925;-79
2022/10/02 05:28:20;;;;;;;;;;;;;;;12.13;83.99;98229.75;4998905;28;19934;-79
2022/10/02 05:30:51;;;;;;;;;;;;;;;12.13;83.75;98237.91;4990522;28;19937;-76
2022/10/02 05:33:23;;;;;;;;;;;;;;;12.02;84.07;98227.28;4988335;28;19933;-76
2022/10/02 05:35:56;;;;;;;;;;;;;;;12.11;84.06;98227.34;4993045;28;19926;-77
2022/10/02 05:38:55;;;;;;;;;;;;;;;12.15;84.01;98230.25;4991111;28;20129;-76
2022/10/02 05:41:25;;;;;;;;;;;;;;;12.14;83.94;98229.41;4991443;28;19925;-77
2022/10/02 05:43:57;;;;;;;;;;;;;;;12.18;83.90;98233.13;4974924;28;19932;-79
2022/10/02 05:46:29;;;;;;;;;;;;;;;12.16;83.80;98224.47;4983836;28;19925;-79
2022/10/02 05:49:00;;;;;;;;;;;;;;;12.18;83.91;98229.59;5008073;28;20392;-79
2022/10/02 05:51:35;;;;;;;;;;;;;;;12.20;83.58;98221.94;4992502;28;19925;-82
2022/10/02 05:54:04;;;;;;;;;;;;;;;12.23;84.01;98229.47;4993919;28;20249;-81
2022/10/02 05:56:35;;;;;;;;;;;;;;;12.16;84.18;98231.84;5006681;28;20307;-80
2022/10/02 05:59:04;;;;;;;;;;;;;;;12.23;84.01;98226.75;4993609;28;19940;-79
2022/10/02 06:01:57;;;;;;;;;;;;;;;12.24;83.59;98228.34;4986873;28;20291;-79
2022/10/02 06:04:29;;;;;;;;;;;;;;;12.12;83.88;98228.94;4982352;28;19948;-79
2022/10/02 06:06:58;;;;;;;;;;;;;;;12.21;83.93;98226.28;5001618;28;19926;-80
2022/10/02 06:09:27;;;;;;;;;;;;;;;12.23;83.89;98227.53;4992812;28;19933;-79
2022/10/02 06:11:58;;;;;;;;;;;;;;;12.20;84.01;98219.22;5007331;28;19925;-79
2022/10/02 06:14:51;;;;;;;;;;;;;;;12.25;83.73;98217.16;4975587;28;19925;-78
2022/10/02 06:17:21;;;;;;;;;;;;;;;12.29;83.64;98217.31;4993457;28;19930;-76
2022/10/02 06:19:52;;;;;;;;;;;;;;;12.31;83.36;98218.63;5006325;28;19947;-77
2022/10/02 06:22:21;;;;;;;;;;;;;;;12.32;83.54;98224.88;4989788;28;19925;-79
2022/10/02 06:24:53;;;;;;;;;;;;;;;12.34;83.55;98228.06;5003816;28;19926;-83
2022/10/02 06:27:25;;;;;;;;;;;;;;;12.34;83.48;98222.63;4988495;28;19925;-80
2022/10/02 06:29:55;;;;;;;;;;;;;;;12.24;83.48;98222.91;4985851;28;19936;-81
2022/10/02 06:32:26;;;;;;;;;;;;;;;12.29;83.65;98233.66;4978495;28;19929;-82
2022/10/02 06:34:55;;;;;;;;;;;;;;;12.29;83.74;98229.00;5011520;28;19933;-79
2022/10/02 06:37:28;;;;;;;;;;;;;;;12.37;83.38;98230.19;4991497;28;20296;-80
2022/10/02 06:40:16;;;;;;;;;;;;;;;12.38;83.14;98234.50;5012986;28;20289;-82
2022/10/02 06:42:51;;;;;;;;;;;;;;;12.40;83.13;98237.69;4976534;28;19926;-82
2022/10/02 06:45:23;;;;;;;;;;;;;;;12.42;82.88;98224.59;4987544;28;19925;-81
2022/10/02 06:47:57;;;;;;;;;;;;;;;12.42;83.20;98227.31;4991146;28;19925;-80
2022/10/02 06:50:31;;;;;;;;;;;;;;;12.43;83.32;98230.84;5016772;28;19925;-83
2022/10/02 06:53:25;;;;;;;;;;;;;;;12.45;83.46;98223.94;5006676;28;19933;-80
2022/10/02 06:56:00;;;;;;;;;;;;;;;12.43;83.46;98226.19;4976469;28;19982;-82
2022/10/02 06:58:34;;;;;;;;;;;;;;;12.47;83.45;98229.91;4988365;28;19925;-82
2022/10/02 07:01:05;;;;;;;;;;;;;;;12.47;83.44;98227.16;4973119;28;19925;-81
2022/10/02 07:03:37;;;;;;;;;;;;;;;12.47;83.58;98227.16;4975508;28;19955;-82
2022/10/02 07:06:12;;;;;;;;;;;;;;;12.46;83.65;98231.00;4992166;28;20451;-83
2022/10/02 07:09:21;;;;;;;;;;;;;;;12.49;83.38;98235.03;4984433;28;19926;-78
2022/10/02 07:11:52;;;;;;;;;;;;;;;12.52;83.23;98239.84;4977801;28;19976;-82
2022/10/02 07:14:30;;;;;;;;;;;;;;;12.51;83.02;98244.47;4997687;28;19926;-80
2022/10/02 07:17:25;;;;;;;;;;;;;;;12.54;83.09;98246.59;5012416;28;20423;-82
2022/10/02 07:20:00;;;;;;;;;;;;;;;12.54;82.99;98235.69;4998842;28;19932;-79
2022/10/02 07:22:31;;;;;;;;;;;;;;;12.54;83.04;98243.84;4991145;28;20007;-76
2022/10/02 07:25:19;;;;;;;;;;;;;;;12.57;83.12;98245.97;4980382;28;19936;-76
2022/10/02 07:27:50;;;;;;;;;;;;;;;12.57;82.98;98254.13;4993237;28;19999;-81
2022/10/02 07:30:19;;;;;;;;;;;;;;;12.60;82.74;98247.25;4982986;28;19934;-77
2022/10/02 07:32:47;;;;;;;;;;;;;;;12.53;83.04;98253.16;4980989;28;19925;-79
2022/10/02 07:35:33;;;;;;;;;;;;;;;12.61;82.87;98254.28;4986546;28;19975;-79
2022/10/02 07:38:09;;;;;;;;;;;;;;;12.66;82.54;98256.06;4995319;28;19925;-79
2022/10/02 07:40:39;;;;;;;;;;;;;;;12.65;82.58;98249.03;4978593;28;19937;-78
2022/10/02 07:43:19;;;;;;;;;;;;;;;12.74;82.26;98252.56;5011836;28;19925;-79
2022/10/02 07:45:48;;;;;;;;;;;;;;;12.71;82.38;98258.66;5006096;28;19934;-79
2022/10/02 07:48:19;;;;;;;;;;;;;;;12.69;82.09;98266.34;4979929;28;19925;-77
2022/10/02 07:50:52;;;;;;;;;;;;;;;12.66;82.30;98259.59;4992124;28;19925;-79
2022/10/02 07:53:23;;;;;;;;;;;;;;;12.68;82.81;98259.31;4972659;28;19929;-79
2022/10/02 07:55:57;;;;;;;;;;;;;;;12.69;82.49;98260.91;5005355;28;22193;-79
2022/10/02 07:58:31;;;;;;;;;;;;;;;12.70;82.49;98260.56;5000999;28;19932;-79
2022/10/02 08:01:02;;;;;;;;;;;;;;;12.67;82.60;98268.56;5005391;28;19952;-79
2022/10/02 08:03:37;;;;;;;;;;;;;;;12.68;82.51;98270.22;5004874;28;19969;-79
2022/10/02 08:06:06;;;;;;;;;;;;;;;12.65;82.52;98259.91;4999456;28;20336;-79
2022/10/02 08:08:37;;;;;;;;;;;;;;;12.61;82.78;98265.19;5000746;28;19933;-79
2022/10/02 08:11:06;;;;;;;;;;;;;;;12.63;82.58;98262.16;4991021;28;19931;-79
2022/10/02 08:13:38;;;;;;;;;;;;;;;12.61;82.53;98264.38;4975928;28;19929;-80
2022/10/02 08:16:12;;;;;;;;;;;;;;;12.62;82.31;98266.78;5006316;28;19925;-79
2022/10/02 08:18:41;;;;;;;;;;;;;;;12.62;82.53;98268.72;4993746;28;19926;-79
2022/10/02 08:21:13;;;;;;;;;;;;;;;12.58;82.60;98265.84;4994107;28;20296;-79
2022/10/02 08:23:43;;;;;;;;;;;;;;;12.64;82.73;98264.56;4980552;28;19934;-79
2022/10/02 08:26:13;;;;;;;;;;;;;;;12.64;83.08;98264.56;5008051;28;19956;-80
2022/10/02 08:28:42;;;;;;;;;;;;;;;12.68;82.92;98264.75;4976248;28;19953;-79
2022/10/02 08:31:12;;;;;;;;;;;;;;;12.62;83.56;98261.34;4991912;28;19934;-78
2022/10/02 08:33:42;;;;;;;;;;;;;;;12.65;83.54;98259.91;4974904;28;20300;-83
2022/10/02 08:36:29;;;;;;;;;;;;;;;12.61;84.01;98262.47;4991998;28;20385;-79
2022/10/02 08:38:59;;;;;;;;;;;;;;;12.61;83.97;98261.66;4972922;28;19937;-78
2022/10/02 08:41:46;;;;;;;;;;;;;;;12.59;84.80;98262.00;4968791;28;19932;-78
2022/10/02 08:44:24;;;;;;;;;;;;;;;12.48;85.15;98261.47;4999819;28;19972;-78
2022/10/02 08:47:14;;;;;;;;;;;;;;;12.56;84.66;98249.78;4981604;28;19933;-78
2022/10/02 08:55:37;;;;;;;;;;;;;;;12.63;85.64;98240.38;5061683;23;20380;-77
2022/10/02 08:58:27;;;;;;;;;;;;;;;12.64;85.99;98236.50;4978776;28;20017;-78
2022/10/02 09:00:59;;;;;;;;;;;;;;;12.62;85.99;98241.47;5101042;23;19937;-76
2022/10/02 09:03:39;;;;;;;;;;;;;;;12.61;86.15;98237.13;4963499;28;19937;-76
2022/10/02 09:06:19;;;;;;;;;;;;;;;12.64;85.94;98237.31;4944527;28;19935;-77
2022/10/02 09:08:56;;;;;;;;;;;;;;;12.59;86.35;98235.53;4930833;29;19934;-76
2022/10/02 09:11:43;;;;;;;;;;;;;;;12.59;85.68;98245.63;4929303;29;19969;-74
2022/10/02 09:14:19;;;;;;;;;;;;;;;12.59;85.76;98234.72;4929451;28;19927;-77
2022/10/02 09:16:54;;;;;;;;;;;;;;;12.61;85.67;98231.69;4948013;28;19927;-74
2022/10/02 09:19:31;;;;;;;;;;;;;;;12.58;86.45;98233.94;4972540;28;19926;-82
2022/10/02 09:22:00;;;;;;;;;;;;;;;12.59;86.92;98234.72;4968394;28;19914;-80
2022/10/02 09:24:45;;;;;;;;;;;;;;;12.57;86.09;98232.34;4945532;29;19926;-74
2022/10/02 09:27:41;;;;;;;;;;;;;;;12.54;86.31;98232.16;4967491;28;20828;-74
2022/10/02 09:30:23;;;;;;;;;;;;;;;12.53;86.79;98230.56;4968515;28;19977;-77
2022/10/02 09:33:14;;;;;;;;;;;;;;;12.48;86.70;98231.50;4962764;28;20400;-75
2022/10/02 09:36:02;;;;;;;;;;;;;;;12.50;86.85;98231.16;4949062;28;19936;-75
2022/10/02 09:38:42;;;;;;;;;;;;;;;12.43;87.09;98231.63;4951261;28;19931;-86
2022/10/02 09:41:29;;;;;;;;;;;;;;;12.43;87.12;98234.34;4936841;28;19934;-75
2022/10/02 09:44:06;;;;;;;;;;;;;;;12.44;87.40;98235.97;4940810;28;19926;-75
2022/10/02 09:46:53;;;;;;;;;;;;;;;12.42;87.63;98234.69;4944894;28;19982;-75
2022/10/02 09:49:30;;;;;;;;;;;;;;;12.38;87.71;98237.22;4942641;28;19937;-75
2022/10/02 09:52:03;;;;;;;;;;;;;;;12.39;88.19;98244.28;4952445;28;20002;-74
2022/10/02 09:54:50;;;;;;;;;;;;;;;12.37;87.87;98237.56;4945460;29;19933;-75
2022/10/02 09:57:39;;;;;;;;;;;;;;;12.35;88.16;98240.56;4947419;28;19927;-75
2022/10/02 10:00:16;;;;;;;;;;;;;;;12.35;88.25;98240.56;4954944;28;19927;-75
2022/10/02 10:03:06;;;;;;;;;;;;;;;12.37;88.40;98238.34;4955041;28;19934;-74
2022/10/02 10:05:53;;;;;;;;;;;;;;;12.37;88.24;98240.28;4966663;28;19926;-75
2022/10/02 10:08:41;;;;;;;;;;;;;;;12.41;88.98;98231.16;4941620;29;19931;-75
2022/10/02 10:11:13;;;;;;;;;;;;;;;12.41;88.39;98233.88;4934344;28;19927;-75
2022/10/02 10:13:55;;;;;;;;;;;;;;;12.40;88.45;98237.69;4936090;29;19954;-75
2022/10/02 10:16:47;;;;;;;;;;;;;;;12.41;88.48;98233.88;4939111;28;20375;-75
2022/10/02 10:19:40;;;;;;;;;;;;;;;12.39;88.45;98224.41;4963745;28;19977;-75
2022/10/02 10:22:25;;;;;;;;;;;;;;;12.39;88.71;98219.75;4940884;29;19926;-75
2022/10/02 10:25:27;;;;;;;;;;;;;;;12.42;88.95;98219.13;4941343;29;20300;-75
2022/10/02 10:28:05;;;;;;;;;;;;;;;12.40;89.65;98221.34;4906039;29;20637;-75
2022/10/02 10:30:57;;;;;;;;;;;;;;;12.50;89.67;98226.53;4942556;28;19927;-75
2022/10/02 10:33:57;;;;;;;;;;;;;;;12.52;89.36;98216.13;4923375;29;20013;-75
2022/10/02 10:39:40;;;;;;;;;;;;;;;12.53;89.45;98203.31;4954070;28;19973;-75
2022/10/02 10:42:17;;;;;;;;;;;;;;;12.53;89.28;98203.31;4933928;28;19927;-75
2022/10/02 10:45:04;;;;;;;;;;;;;;;12.52;89.17;98210.69;4939390;29;20029;-75
2022/10/02 10:47:40;;;;;;;;;;;;;;;12.42;89.01;98202.78;4970385;28;20375;-75
2022/10/02 10:50:18;;;;;;;;;;;;;;;12.50;89.88;98210.16;4954067;28;19930;-76
2022/10/02 10:53:03;;;;;;;;;;;;;;;12.53;90.25;98209.56;4968455;28;19969;-75
2022/10/02 10:55:33;;;;;;;;;;;;;;;12.47;90.11;98207.28;4955346;28;19927;-75
2022/10/02 10:58:11;;;;;;;;;;;;;;;12.47;90.14;98205.38;4926630;28;20022;-75
2022/10/02 11:01:15;;;;;;;;;;;;;;;12.43;91.11;98204.38;4947195;28;19962;-75
2022/10/02 11:03:48;;;;;;;;;;;;;;;12.52;90.97;98199.78;4947230;28;19934;-76
2022/10/02 11:06:35;;;;;;;;;;;;;;;12.56;91.12;98208.09;4970025;28;20373;-75
2022/10/02 11:09:09;;;;;;;;;;;;;;;12.57;90.84;98212.47;4950284;28;19930;-75
2022/10/02 11:14:41;;;;;;;;;;;;;;;12.59;91.33;98215.66;4953949;28;20329;-75
2022/10/02 11:17:28;;;;;;;;;;;;;;;12.60;91.33;98206.34;4926402;29;19927;-75
2022/10/02 11:20:03;;;;;;;;;;;;;;;12.59;91.24;98204.75;4938229;29;19932;-75
2022/10/02 11:22:37;;;;;;;;;;;;;;;12.62;91.37;98203.31;4955425;28;19927;-75
2022/10/02 11:25:28;;;;;;;;;;;;;;;12.54;91.43;98192.06;4926532;29;19933;-75
2022/10/02 11:28:01;;;;;;;;;;;;;;;12.58;91.76;98190.31;4951983;28;19934;-75
2022/10/02 11:30:37;;;;;;;;;;;;;;;12.66;91.54;98190.66;4952901;28;19986;-75
2022/10/02 11:33:18;;;;;;;;;;;;;;;12.61;91.01;98188.06;4955063;28;19927;-75
2022/10/02 11:36:17;;;;;;;;;;;;;;;12.64;91.67;98192.91;4957021;28;19926;-75
2022/10/02 11:39:04;;;;;;;;;;;;;;;12.62;91.15;98203.31;4958379;28;19926;-75
2022/10/02 11:41:42;;;;;;;;;;;;;;;12.56;91.20;98205.38;4940445;29;19926;-75
2022/10/02 11:44:23;;;;;;;;;;;;;;;12.55;90.78;98212.75;4941320;29;19927;-75
2022/10/02 11:47:13;;;;;;;;;;;;;;;12.55;90.73;98212.75;4936437;29;19926;-75
2022/10/02 11:49:50;;;;;;;;;;;;;;;12.49;90.97;98218.66;4932472;29;20346;-75
2022/10/02 11:52:25;;;;;;;;;;;;;;;12.49;91.33;98214.03;4914148;28;20099;-75
2022/10/02 11:54:58;;;;;;;;;;;;;;;12.48;91.44;98217.88;4969562;28;20100;-75
2022/10/02 11:57:31;;;;;;;;;;;;;;;12.48;91.63;98219.78;4969687;28;19926;-75
2022/10/02 12:00:06;;;;;;;;;;;;;;;12.47;91.38;98213.53;4921394;29;19982;-75
2022/10/02 12:02:44;;;;;;;;;;;;;;;12.48;91.89;98217.88;4952511;28;20021;-75
2022/10/02 12:05:20;;;;;;;;;;;;;;;12.49;91.90;98214.03;4932804;28;19926;-75
2022/10/02 12:07:51;;;;;;;;;;;;;;;12.49;92.00;98208.56;4927554;28;19926;-76
2022/10/02 12:10:28;;;;;;;;;;;;;;;12.48;92.06;98211.63;4953035;28;19926;-75
2022/10/02 12:13:00;;;;;;;;;;;;;;;12.48;92.27;98206.16;4933838;28;20009;-75
2022/10/02 12:15:33;;;;;;;;;;;;;;;12.49;92.51;98203.13;4948259;28;19926;-75
2022/10/02 12:18:06;;;;;;;;;;;;;;;12.48;92.66;98196.06;4936719;28;20272;-75
2022/10/02 12:29:09;;;;;;;;;;;;;;;12.52;93.12;98199.78;4943227;28;19995;-75
2022/10/02 12:31:39;;;;;;;;;;;;;;;12.57;93.40;98190.66;4953414;28;19927;-75
2022/10/02 12:34:09;;;;;;;;;;;;;;;12.61;93.47;98188.06;4951927;28;19937;-75
2022/10/02 12:36:43;;;;;;;;;;;;;;;12.61;93.18;98179.91;4953772;28;20441;-75
2022/10/02 12:39:17;;;;;;;;;;;;;;;12.62;93.40;98182.28;4938216;29;20369;-75
2022/10/02 12:42:03;;;;;;;;;;;;;;;12.65;93.08;98178.16;4955464;28;20344;-75
2022/10/02 12:44:38;;;;;;;;;;;;;;;12.64;92.86;98173.81;4926156;28;19977;-75
2022/10/02 12:50:32;;;;;;;;;;;;;;;12.62;92.51;98185.03;4923432;29;19934;-75
2022/10/02 12:53:11;;;;;;;;;;;;;;;12.62;92.42;98185.03;4969487;28;19937;-75
2022/10/02 12:56:00;;;;;;;;;;;;;;;12.65;92.46;98197.22;4952384;28;20404;-75
2022/10/02 12:58:31;;;;;;;;;;;;;;;12.63;92.38;98202.22;4952701;28;19934;-75
2022/10/02 13:01:55;;;;;;;;;;;;;;;12.66;91.80;98204.28;4950431;28;19932;-75
2022/10/02 13:04:33;;;;;;;;;;;;;;;12.67;91.10;98208.59;4935437;28;19937;-75
2022/10/02 13:07:17;;;;;;;;;;;;;;;12.63;91.38;98208.47;4932981;29;19926;-75
2022/10/02 13:09:49;;;;;;;;;;;;;;;12.59;91.51;98210.19;4929884;28;19927;-75
2022/10/02 13:12:21;;;;;;;;;;;;;;;12.58;91.40;98214.06;4967868;28;19931;-75
2022/10/02 13:15:34;;;;;;;;;;;;;;;12.57;92.08;98207.00;4952296;28;19930;-75
2022/10/02 13:18:12;;;;;;;;;;;;;;;12.61;91.98;98201.69;4938983;28;19934;-75
2022/10/02 13:20:41;;;;;;;;;;;;;;;12.56;91.80;98211.63;4937542;28;19934;-75
2022/10/02 13:23:16;;;;;;;;;;;;;;;12.59;91.15;98212.94;4967820;28;20310;-75
2022/10/02 13:25:53;;;;;;;;;;;;;;;12.54;91.01;98216.59;4954284;28;19937;-75
2022/10/02 13:28:27;;;;;;;;;;;;;;;12.52;90.85;98218.06;4940617;28;20013;-76
2022/10/02 13:30:58;;;;;;;;;;;;;;;12.50;91.11;98226.53;4967407;28;19930;-75
2022/10/02 13:33:31;;;;;;;;;;;;;;;12.56;90.57;98217.06;4950566;28;19974;-76
2022/10/02 13:36:02;;;;;;;;;;;;;;;12.50;90.96;98207.44;4913139;29;19926;-75
2022/10/02 13:38:34;;;;;;;;;;;;;;;12.51;90.26;98200.88;4946942;28;19930;-75
2022/10/02 13:41:06;;;;;;;;;;;;;;;12.61;90.21;98196.25;4952529;28;20010;-75
2022/10/02 13:43:55;;;;;;;;;;;;;;;12.57;90.30;98185.19;4936960;28;19936;-75
2022/10/02 13:46:32;;;;;;;;;;;;;;;12.62;90.93;98182.28;4915762;28;20389;-75
2022/10/02 13:49:08;;;;;;;;;;;;;;;12.63;90.54;98177.69;4920639;29;20438;-75
2022/10/02 13:51:39;;;;;;;;;;;;;;;12.59;90.05;98182.94;4962104;28;19926;-76
2022/10/02 13:54:36;;;;;;;;;;;;;;;12.64;89.52;98176.56;4954003;28;19926;-75
2022/10/02 13:57:08;;;;;;;;;;;;;;;12.57;89.68;98180.56;4957593;28;19930;-75
2022/10/02 14:00:07;;;;;;;;;;;;;;;12.55;90.19;98185.50;4953318;28;19978;-76
2022/10/02 14:02:46;;;;;;;;;;;;;;;12.54;89.92;98177.66;4971076;28;19954;-75